createdAt,value
2022-10-01T00:00:37.233Z,0.00
2022-10-01T00:06:09.074Z,1.00
2022-10-01T00:11:40.767Z,0.00
2022-10-01T00:17:12.470Z,0.00
2022-10-01T00:22:44.521Z,0.00
2022-10-01T00:28:16.305Z,0.00
2022-10-01T00:33:48.049Z,0.00
2022-10-01T00:39:19.767Z,1.00
2022-10-01T00:44:51.713Z,0.00
2022-10-01T00:50:23.389Z,0.00
2022-10-01T00:55:55.307Z,0.00
2022-10-01T01:01:27.740Z,0.00
2022-10-01T01:06:59.411Z,0.00
2022-10-01T01:12:31.188Z,1.00
2022-10-01T01:18:02.986Z,0.00
2022-10-01T01:23:34.612Z,0.00
2022-10-01T01:29:08.224Z,0.00
2022-10-01T01:34:40.044Z,0.00
2022-10-01T01:40:11.665Z,0.00
2022-10-01T01:45:43.471Z,0.00
2022-10-01T01:51:15.422Z,0.00
2022-10-01T01:56:47.351Z,0.00
2022-10-01T02:02:19.057Z,0.00
2022-10-01T02:07:50.854Z,0.00
2022-10-01T02:13:22.585Z,0.00
2022-10-01T02:18:54.228Z,0.00
2022-10-01T02:24:26.111Z,0.00
2022-10-01T02:29:58.052Z,0.00
2022-10-01T02:35:29.827Z,0.00
2022-10-01T02:41:01.606Z,0.00
2022-10-01T02:46:33.334Z,1.00
2022-10-01T02:52:05.210Z,0.00
2022-10-01T02:57:37.112Z,0.00
2022-10-01T03:03:08.866Z,0.00
2022-10-01T03:08:40.653Z,0.00
2022-10-01T03:14:12.390Z,0.00
2022-10-01T03:16:25.013Z,0.00
2022-10-01T03:21:56.387Z,0.00
2022-10-01T03:27:28.282Z,0.00
2022-10-01T03:32:59.872Z,1.00
2022-10-01T03:38:31.454Z,1.00
2022-10-01T03:44:03.266Z,0.00
2022-10-01T03:49:35.064Z,0.00
2022-10-01T03:55:06.822Z,0.00
2022-10-01T04:00:38.677Z,0.00
2022-10-01T04:06:10.451Z,0.00
2022-10-01T04:14:03.610Z,0.00
2022-10-01T04:19:34.901Z,1.00
2022-10-01T04:25:06.505Z,1.00
2022-10-01T04:30:38.018Z,2.00
2022-10-01T04:41:39.179Z,11.00
2022-10-01T04:52:40.309Z,102.00
2022-10-01T04:58:11.986Z,240.00
2022-10-01T05:03:43.544Z,1271.00
2022-10-01T05:09:15.238Z,2577.00
2022-10-01T05:14:47.070Z,2874.00
2022-10-01T05:20:18.764Z,3368.00
2022-10-01T05:25:50.358Z,5025.00
2022-10-01T05:31:21.932Z,19264.00
2022-10-01T05:36:53.805Z,37889.00
2022-10-01T05:42:25.499Z,37889.00
2022-10-01T05:47:57.521Z,37889.00
2022-10-01T05:53:28.987Z,37889.00
2022-10-01T05:59:01.106Z,12990.00
2022-10-01T06:04:32.536Z,13707.00
2022-10-01T06:10:04.333Z,17785.00
2022-10-01T06:15:35.988Z,37888.00
2022-10-01T06:21:07.905Z,37889.00
2022-10-01T06:26:39.694Z,37889.00
2022-10-01T06:32:11.471Z,28332.00
2022-10-01T06:37:43.289Z,18085.00
2022-10-01T06:43:14.988Z,17184.00
2022-10-01T06:54:16.241Z,18045.00
2022-10-01T06:59:47.858Z,18216.00
2022-10-01T07:05:19.548Z,17228.00
2022-10-01T07:10:51.427Z,17463.00
2022-10-01T07:16:23.232Z,17133.00
2022-10-01T07:21:54.809Z,17256.00
2022-10-01T07:27:26.820Z,17245.00
2022-10-01T07:32:58.344Z,16308.00
2022-10-01T07:38:29.750Z,15478.00
2022-10-01T07:49:33.264Z,16912.00
2022-10-01T07:55:05.141Z,17081.00
2022-10-01T08:00:36.995Z,17488.00
2022-10-01T08:06:08.616Z,17992.00
2022-10-01T08:11:40.455Z,17815.00
2022-10-01T08:17:12.264Z,17876.00
2022-10-01T08:22:44.039Z,17862.00
2022-10-01T08:33:47.704Z,16602.00
2022-10-01T08:39:19.517Z,16770.00
2022-10-01T08:44:54.412Z,16538.00
2022-10-01T08:50:25.899Z,15184.00
2022-10-01T08:55:57.698Z,14939.00
2022-10-01T09:06:58.864Z,15046.00
2022-10-01T09:12:30.383Z,16577.00
2022-10-01T09:18:02.167Z,20084.00
2022-10-01T09:23:34.306Z,21241.00
2022-10-01T09:29:06.297Z,18944.00
2022-10-01T09:40:07.589Z,12110.00
2022-10-01T09:45:39.517Z,10923.00
2022-10-01T09:51:10.968Z,11195.00
2022-10-01T09:56:42.844Z,12722.00
2022-10-01T10:02:14.710Z,13682.00
2022-10-01T10:07:46.259Z,13645.00
2022-10-01T10:13:18.079Z,13024.00
2022-10-01T10:18:49.979Z,10624.00
2022-10-01T10:24:22.208Z,10080.00
2022-10-01T10:29:53.744Z,9746.00
2022-10-01T10:35:25.347Z,9362.00
2022-10-01T10:40:57.176Z,8106.00
2022-10-01T10:46:29.010Z,7012.00
2022-10-01T10:52:00.775Z,6927.00
2022-10-01T10:57:32.613Z,7570.00
2022-10-01T11:03:04.380Z,7298.00
2022-10-01T11:08:36.271Z,7048.00
2022-10-01T11:14:07.936Z,7284.00
2022-10-01T11:19:39.758Z,7506.00
2022-10-01T11:30:41.176Z,6545.00
2022-10-01T11:36:12.959Z,5896.00
2022-10-01T11:41:44.724Z,5703.00
2022-10-01T11:47:16.533Z,5836.00
2022-10-01T11:52:48.332Z,5612.00
2022-10-01T11:58:20.005Z,5445.00
2022-10-01T12:03:51.663Z,4677.00
2022-10-01T12:09:23.420Z,4847.00
2022-10-01T12:14:55.261Z,5830.00
2022-10-01T12:20:26.946Z,6053.00
2022-10-01T12:31:28.498Z,5159.00
2022-10-01T12:37:00.095Z,6459.00
2022-10-01T12:42:31.843Z,5714.00
2022-10-01T12:48:03.822Z,6293.00
2022-10-01T12:53:35.430Z,6762.00
2022-10-01T12:59:07.234Z,6032.00
2022-10-01T13:04:38.934Z,6052.00
2022-10-01T13:10:10.873Z,6251.00
2022-10-01T13:15:42.802Z,5947.00
2022-10-01T13:21:14.335Z,6276.00
2022-10-01T13:26:45.934Z,6749.00
2022-10-01T13:32:17.741Z,5816.00
2022-10-01T13:37:49.875Z,6517.00
2022-10-01T13:43:21.868Z,5965.00
2022-10-01T13:48:53.558Z,5916.00
2022-10-01T13:54:25.568Z,6551.00
2022-10-01T13:59:57.700Z,6968.00
2022-10-01T14:05:29.624Z,5968.00
2022-10-01T14:11:01.328Z,6411.00
2022-10-01T14:16:33.196Z,9005.00
2022-10-01T14:22:04.694Z,7714.00
2022-10-01T14:27:36.720Z,6595.00
2022-10-01T14:33:08.662Z,5356.00
2022-10-01T14:38:40.120Z,6144.00
2022-10-01T14:44:12.136Z,7005.00
2022-10-01T14:49:43.801Z,8520.00
2022-10-01T14:55:15.592Z,6336.00
2022-10-01T15:00:47.929Z,5842.00
2022-10-01T15:06:19.860Z,4124.00
2022-10-01T15:11:51.753Z,5048.00
2022-10-01T15:17:23.698Z,4767.00
2022-10-01T15:23:00.369Z,4394.00
2022-10-01T15:28:27.230Z,4241.00
2022-10-01T15:33:59.236Z,4212.00
2022-10-01T15:39:30.795Z,3867.00
2022-10-01T15:45:02.562Z,3572.00
2022-10-01T15:50:34.331Z,3358.00
2022-10-01T15:56:06.178Z,2896.00
2022-10-01T16:01:37.996Z,2264.00
2022-10-01T16:07:09.733Z,1925.00
2022-10-01T16:12:41.526Z,1647.00
2022-10-01T16:18:13.062Z,1362.00
2022-10-01T16:23:44.597Z,1068.00
2022-10-01T16:29:16.455Z,826.00
2022-10-01T16:34:48.339Z,660.00
2022-10-01T16:40:20.210Z,484.00
2022-10-01T16:45:51.952Z,279.00
2022-10-01T16:51:24.016Z,141.00
2022-10-01T16:56:55.606Z,92.00
2022-10-01T17:02:27.422Z,93.00
2022-10-01T17:07:59.172Z,27.00
2022-10-01T17:13:31.018Z,17.00
2022-10-01T17:19:02.721Z,5.00
2022-10-01T17:24:34.473Z,2.00
2022-10-01T17:26:46.201Z,1.00
2022-10-01T17:32:17.752Z,0.00
2022-10-01T17:37:49.506Z,0.00
2022-10-01T17:43:21.235Z,1.00
2022-10-01T17:48:52.325Z,0.00
2022-10-01T17:54:24.375Z,1.00
2022-10-01T17:59:56.108Z,0.00
2022-10-01T18:05:27.637Z,0.00
2022-10-01T18:10:59.479Z,1.00
2022-10-01T18:16:31.221Z,0.00
2022-10-01T18:22:03.134Z,0.00
2022-10-01T18:27:34.237Z,0.00
2022-10-01T18:33:06.056Z,1.00
2022-10-01T18:38:38.002Z,1.00
2022-10-01T18:44:09.657Z,1.00
2022-10-01T18:51:55.406Z,1.00
2022-10-01T18:57:27.719Z,1.00
2022-10-01T19:02:59.741Z,1.00
2022-10-01T19:08:31.590Z,0.00
2022-10-01T19:14:03.093Z,0.00
2022-10-01T19:19:34.697Z,0.00
2022-10-01T19:25:06.343Z,3.00
2022-10-01T19:30:38.022Z,3.00
2022-10-01T19:36:09.591Z,2.00
2022-10-01T19:41:41.169Z,3.00
2022-10-01T19:47:13.101Z,3.00
2022-10-01T19:52:45.129Z,3.00
2022-10-01T19:58:17.165Z,2.00
2022-10-01T20:03:49.250Z,3.00
2022-10-01T20:09:21.109Z,3.00
2022-10-01T20:14:52.854Z,3.00
2022-10-01T20:20:24.544Z,3.00
2022-10-01T20:25:56.253Z,2.00
2022-10-01T20:31:28.183Z,3.00
2022-10-01T20:37:00.121Z,3.00
2022-10-01T20:42:31.872Z,4.00
2022-10-01T20:53:35.304Z,1.00
2022-10-01T20:59:07.014Z,0.00
2022-10-01T21:04:39.826Z,1.00
2022-10-01T21:10:11.512Z,0.00
2022-10-01T21:15:42.949Z,0.00
2022-10-01T21:21:14.665Z,1.00
2022-10-01T21:26:46.440Z,1.00
2022-10-01T21:32:17.812Z,0.00
2022-10-01T21:37:49.881Z,0.00
2022-10-01T21:43:21.628Z,0.00
2022-10-01T21:48:53.344Z,0.00
2022-10-01T21:54:24.890Z,0.00
2022-10-01T21:59:56.823Z,1.00
2022-10-01T22:11:00.056Z,1.00
2022-10-01T22:16:32.111Z,1.00
2022-10-01T22:22:03.829Z,1.00
2022-10-01T22:27:35.606Z,1.00
2022-10-01T22:38:38.896Z,0.00
2022-10-01T22:49:42.316Z,1.00
2022-10-01T22:55:14.126Z,0.00
2022-10-01T23:00:51.759Z,1.00
2022-10-01T23:06:23.299Z,0.00
2022-10-01T23:11:57.395Z,0.00
2022-10-01T23:17:29.538Z,0.00
2022-10-01T23:23:01.243Z,1.00
2022-10-01T23:28:32.727Z,1.00
2022-10-01T23:34:04.914Z,0.00
2022-10-01T23:39:36.361Z,1.00
2022-10-01T23:45:08.114Z,2.00
2022-10-01T23:50:39.857Z,0.00
2022-10-01T23:56:11.910Z,1.00
